sensor_id;sensor_type;location;lat;lon;timestamp;temperature;humidity
24444;DHT22;13346;50.984;5.822;2023-06-19T00:00:53;21.20;99.90
24444;DHT22;13346;50.984;5.822;2023-06-19T00:03:20;21.10;99.90
24444;DHT22;13346;50.984;5.822;2023-06-19T00:05:48;20.90;99.90
24444;DHT22;13346;50.984;5.822;2023-06-19T00:08:15;20.80;99.90
24444;DHT22;13346;50.984;5.822;2023-06-19T00:10:43;21.00;99.90
24444;DHT22;13346;50.984;5.822;2023-06-19T00:13:10;20.80;99.90
24444;DHT22;13346;50.984;5.822;2023-06-19T00:15:37;20.80;99.90
24444;DHT22;13346;50.984;5.822;2023-06-19T00:18:05;20.70;99.90
24444;DHT22;13346;50.984;5.822;2023-06-19T00:20:32;20.80;99.90
24444;DHT22;13346;50.984;5.822;2023-06-19T00:23:00;20.70;99.90
24444;DHT22;13346;50.984;5.822;2023-06-19T00:25:27;20.70;99.90
24444;DHT22;13346;50.984;5.822;2023-06-19T00:27:56;20.80;99.90
24444;DHT22;13346;50.984;5.822;2023-06-19T00:30:23;20.60;99.90
24444;DHT22;13346;50.984;5.822;2023-06-19T00:32:50;20.60;99.90
24444;DHT22;13346;50.984;5.822;2023-06-19T00:35:19;20.70;99.90
24444;DHT22;13346;50.984;5.822;2023-06-19T00:37:47;20.90;99.90
24444;DHT22;13346;50.984;5.822;2023-06-19T00:40:25;20.80;99.90
24444;DHT22;13346;50.984;5.822;2023-06-19T00:42:53;20.70;99.90
24444;DHT22;13346;50.984;5.822;2023-06-19T00:45:22;21.00;99.90
24444;DHT22;13346;50.984;5.822;2023-06-19T00:47:50;20.90;99.90
24444;DHT22;13346;50.984;5.822;2023-06-19T00:50:18;20.90;99.90
24444;DHT22;13346;50.984;5.822;2023-06-19T00:52:45;20.80;99.90
24444;DHT22;13346;50.984;5.822;2023-06-19T00:55:13;20.80;99.90
24444;DHT22;13346;50.984;5.822;2023-06-19T00:57:41;20.80;99.90
24444;DHT22;13346;50.984;5.822;2023-06-19T01:00:10;20.50;99.90
24444;DHT22;13346;50.984;5.822;2023-06-19T01:02:39;20.40;99.90
24444;DHT22;13346;50.984;5.822;2023-06-19T01:05:07;20.60;99.90
24444;DHT22;13346;50.984;5.822;2023-06-19T01:07:43;20.50;99.90
24444;DHT22;13346;50.984;5.822;2023-06-19T01:10:15;20.50;99.90
24444;DHT22;13346;50.984;5.822;2023-06-19T01:12:49;20.60;99.90
24444;DHT22;13346;50.984;5.822;2023-06-19T01:15:18;20.60;99.90
24444;DHT22;13346;50.984;5.822;2023-06-19T01:17:49;20.60;99.90
24444;DHT22;13346;50.984;5.822;2023-06-19T01:20:16;20.40;99.90
24444;DHT22;13346;50.984;5.822;2023-06-19T01:22:45;20.70;99.90
24444;DHT22;13346;50.984;5.822;2023-06-19T01:25:12;20.40;99.90
24444;DHT22;13346;50.984;5.822;2023-06-19T01:27:40;20.60;99.90
24444;DHT22;13346;50.984;5.822;2023-06-19T01:30:10;20.70;99.90
24444;DHT22;13346;50.984;5.822;2023-06-19T01:32:44;20.60;99.90
24444;DHT22;13346;50.984;5.822;2023-06-19T01:35:17;20.40;99.90
24444;DHT22;13346;50.984;5.822;2023-06-19T01:37:48;20.60;99.90
24444;DHT22;13346;50.984;5.822;2023-06-19T01:40:16;20.60;99.90
24444;DHT22;13346;50.984;5.822;2023-06-19T01:42:46;20.60;99.90
24444;DHT22;13346;50.984;5.822;2023-06-19T01:45:14;20.60;99.90
24444;DHT22;13346;50.984;5.822;2023-06-19T01:47:41;20.60;99.90
24444;DHT22;13346;50.984;5.822;2023-06-19T01:50:09;20.40;99.90
24444;DHT22;13346;50.984;5.822;2023-06-19T01:52:38;20.30;99.90
24444;DHT22;13346;50.984;5.822;2023-06-19T01:55:08;20.30;99.90
24444;DHT22;13346;50.984;5.822;2023-06-19T01:57:36;20.30;99.90
24444;DHT22;13346;50.984;5.822;2023-06-19T02:00:05;20.20;99.90
24444;DHT22;13346;50.984;5.822;2023-06-19T02:02:33;20.00;99.90
24444;DHT22;13346;50.984;5.822;2023-06-19T02:05:00;20.10;99.90
24444;DHT22;13346;50.984;5.822;2023-06-19T02:07:28;20.00;99.90
24444;DHT22;13346;50.984;5.822;2023-06-19T02:09:56;20.00;99.90
24444;DHT22;13346;50.984;5.822;2023-06-19T02:12:25;19.90;99.90
24444;DHT22;13346;50.984;5.822;2023-06-19T02:14:52;19.90;99.90
24444;DHT22;13346;50.984;5.822;2023-06-19T02:17:19;19.80;99.90
24444;DHT22;13346;50.984;5.822;2023-06-19T02:19:46;19.80;99.90
24444;DHT22;13346;50.984;5.822;2023-06-19T02:22:13;19.60;99.90
24444;DHT22;13346;50.984;5.822;2023-06-19T02:24:40;19.60;99.90
24444;DHT22;13346;50.984;5.822;2023-06-19T02:27:10;19.60;99.90
24444;DHT22;13346;50.984;5.822;2023-06-19T02:29:38;19.70;99.90
24444;DHT22;13346;50.984;5.822;2023-06-19T02:32:06;19.80;99.90
24444;DHT22;13346;50.984;5.822;2023-06-19T02:34:33;19.80;99.90
24444;DHT22;13346;50.984;5.822;2023-06-19T02:37:01;19.70;99.90
24444;DHT22;13346;50.984;5.822;2023-06-19T02:39:28;19.70;99.90
24444;DHT22;13346;50.984;5.822;2023-06-19T02:41:56;19.70;99.90
24444;DHT22;13346;50.984;5.822;2023-06-19T02:44:23;19.60;99.90
24444;DHT22;13346;50.984;5.822;2023-06-19T02:46:51;19.60;99.90
24444;DHT22;13346;50.984;5.822;2023-06-19T02:49:18;19.60;99.90
24444;DHT22;13346;50.984;5.822;2023-06-19T02:51:46;19.60;99.90
24444;DHT22;13346;50.984;5.822;2023-06-19T02:54:13;19.50;99.90
24444;DHT22;13346;50.984;5.822;2023-06-19T02:56:40;19.50;99.90
24444;DHT22;13346;50.984;5.822;2023-06-19T02:59:07;19.40;99.90
24444;DHT22;13346;50.984;5.822;2023-06-19T03:01:35;19.10;99.90
24444;DHT22;13346;50.984;5.822;2023-06-19T03:04:03;18.90;99.90
24444;DHT22;13346;50.984;5.822;2023-06-19T03:06:30;18.90;99.90
24444;DHT22;13346;50.984;5.822;2023-06-19T03:08:59;18.90;99.90
24444;DHT22;13346;50.984;5.822;2023-06-19T03:11:26;18.90;99.90
24444;DHT22;13346;50.984;5.822;2023-06-19T03:13:54;18.70;99.90
24444;DHT22;13346;50.984;5.822;2023-06-19T03:16:21;18.80;99.90
24444;DHT22;13346;50.984;5.822;2023-06-19T03:18:48;18.70;99.90
24444;DHT22;13346;50.984;5.822;2023-06-19T03:21:17;18.70;99.90
24444;DHT22;13346;50.984;5.822;2023-06-19T03:23:45;18.70;99.90
24444;DHT22;13346;50.984;5.822;2023-06-19T03:26:13;18.70;99.90
24444;DHT22;13346;50.984;5.822;2023-06-19T03:28:40;18.80;99.90
24444;DHT22;13346;50.984;5.822;2023-06-19T03:31:08;18.70;99.90
24444;DHT22;13346;50.984;5.822;2023-06-19T03:33:35;18.70;99.90
24444;DHT22;13346;50.984;5.822;2023-06-19T03:36:02;18.60;99.90
24444;DHT22;13346;50.984;5.822;2023-06-19T03:38:31;18.70;99.90
24444;DHT22;13346;50.984;5.822;2023-06-19T03:40:59;18.70;99.90
24444;DHT22;13346;50.984;5.822;2023-06-19T03:43:26;18.60;99.90
24444;DHT22;13346;50.984;5.822;2023-06-19T03:45:53;18.70;99.90
24444;DHT22;13346;50.984;5.822;2023-06-19T03:48:20;18.70;99.90
24444;DHT22;13346;50.984;5.822;2023-06-19T03:50:47;18.80;99.90
24444;DHT22;13346;50.984;5.822;2023-06-19T03:53:15;18.80;99.90
24444;DHT22;13346;50.984;5.822;2023-06-19T03:55:43;19.00;99.90
24444;DHT22;13346;50.984;5.822;2023-06-19T03:58:11;18.90;99.90
24444;DHT22;13346;50.984;5.822;2023-06-19T04:00:38;19.00;99.90
24444;DHT22;13346;50.984;5.822;2023-06-19T04:03:07;19.10;99.90
24444;DHT22;13346;50.984;5.822;2023-06-19T04:05:35;19.00;99.90
24444;DHT22;13346;50.984;5.822;2023-06-19T04:08:02;19.00;99.90
24444;DHT22;13346;50.984;5.822;2023-06-19T04:10:29;18.90;99.90
24444;DHT22;13346;50.984;5.822;2023-06-19T04:12:58;19.00;99.90
24444;DHT22;13346;50.984;5.822;2023-06-19T04:15:25;19.00;99.90
24444;DHT22;13346;50.984;5.822;2023-06-19T04:17:52;19.00;99.90
24444;DHT22;13346;50.984;5.822;2023-06-19T04:20:20;19.00;99.90
24444;DHT22;13346;50.984;5.822;2023-06-19T04:22:47;19.00;99.90
24444;DHT22;13346;50.984;5.822;2023-06-19T04:25:14;19.00;99.90
24444;DHT22;13346;50.984;5.822;2023-06-19T04:27:41;19.00;99.90
24444;DHT22;13346;50.984;5.822;2023-06-19T04:30:12;19.00;99.90
24444;DHT22;13346;50.984;5.822;2023-06-19T04:32:39;19.10;99.90
24444;DHT22;13346;50.984;5.822;2023-06-19T04:35:07;19.10;99.90
24444;DHT22;13346;50.984;5.822;2023-06-19T04:37:34;19.20;99.90
24444;DHT22;13346;50.984;5.822;2023-06-19T04:40:02;19.20;99.90
24444;DHT22;13346;50.984;5.822;2023-06-19T04:42:30;19.20;99.90
24444;DHT22;13346;50.984;5.822;2023-06-19T04:44:57;19.20;99.90
24444;DHT22;13346;50.984;5.822;2023-06-19T04:47:26;19.20;99.90
24444;DHT22;13346;50.984;5.822;2023-06-19T04:49:53;19.20;99.90
24444;DHT22;13346;50.984;5.822;2023-06-19T04:52:20;19.20;99.90
24444;DHT22;13346;50.984;5.822;2023-06-19T04:54:48;19.20;99.90
24444;DHT22;13346;50.984;5.822;2023-06-19T04:57:15;19.20;99.90
24444;DHT22;13346;50.984;5.822;2023-06-19T04:59:43;19.30;99.90
24444;DHT22;13346;50.984;5.822;2023-06-19T05:02:10;19.20;99.90
24444;DHT22;13346;50.984;5.822;2023-06-19T05:04:39;19.30;99.90
24444;DHT22;13346;50.984;5.822;2023-06-19T05:07:08;19.30;99.90
24444;DHT22;13346;50.984;5.822;2023-06-19T05:09:38;19.40;99.90
24444;DHT22;13346;50.984;5.822;2023-06-19T05:12:06;19.40;99.90
24444;DHT22;13346;50.984;5.822;2023-06-19T05:14:33;19.40;99.90
24444;DHT22;13346;50.984;5.822;2023-06-19T05:17:00;19.40;99.90
24444;DHT22;13346;50.984;5.822;2023-06-19T05:19:27;19.50;99.90
24444;DHT22;13346;50.984;5.822;2023-06-19T05:21:56;19.50;99.90
24444;DHT22;13346;50.984;5.822;2023-06-19T05:24:23;19.50;99.90
24444;DHT22;13346;50.984;5.822;2023-06-19T05:26:50;19.50;99.90
24444;DHT22;13346;50.984;5.822;2023-06-19T05:29:17;19.60;99.90
24444;DHT22;13346;50.984;5.822;2023-06-19T05:31:44;19.50;99.90
24444;DHT22;13346;50.984;5.822;2023-06-19T05:34:12;19.40;99.90
24444;DHT22;13346;50.984;5.822;2023-06-19T05:36:39;18.80;99.90
24444;DHT22;13346;50.984;5.822;2023-06-19T05:39:07;18.40;99.90
24444;DHT22;13346;50.984;5.822;2023-06-19T05:41:35;18.30;99.90
24444;DHT22;13346;50.984;5.822;2023-06-19T05:44:02;18.20;99.90
24444;DHT22;13346;50.984;5.822;2023-06-19T05:46:30;18.20;99.90
24444;DHT22;13346;50.984;5.822;2023-06-19T05:48:57;18.30;99.90
24444;DHT22;13346;50.984;5.822;2023-06-19T05:51:24;18.40;99.90
24444;DHT22;13346;50.984;5.822;2023-06-19T05:53:51;18.50;99.90
24444;DHT22;13346;50.984;5.822;2023-06-19T05:56:20;18.60;99.90
24444;DHT22;13346;50.984;5.822;2023-06-19T05:58:47;18.70;99.90
24444;DHT22;13346;50.984;5.822;2023-06-19T06:01:14;18.60;99.90
24444;DHT22;13346;50.984;5.822;2023-06-19T06:03:43;18.80;99.90
24444;DHT22;13346;50.984;5.822;2023-06-19T06:06:11;18.90;99.90
24444;DHT22;13346;50.984;5.822;2023-06-19T06:08:38;18.80;99.90
24444;DHT22;13346;50.984;5.822;2023-06-19T06:11:05;18.90;99.90
24444;DHT22;13346;50.984;5.822;2023-06-19T06:13:34;19.10;99.90
24444;DHT22;13346;50.984;5.822;2023-06-19T06:16:01;18.90;99.90
24444;DHT22;13346;50.984;5.822;2023-06-19T06:18:28;19.00;99.90
24444;DHT22;13346;50.984;5.822;2023-06-19T06:20:55;19.00;99.90
24444;DHT22;13346;50.984;5.822;2023-06-19T06:23:24;19.20;99.90
24444;DHT22;13346;50.984;5.822;2023-06-19T06:25:52;19.30;99.90
24444;DHT22;13346;50.984;5.822;2023-06-19T06:28:20;19.30;99.90
24444;DHT22;13346;50.984;5.822;2023-06-19T06:30:48;19.60;99.90
24444;DHT22;13346;50.984;5.822;2023-06-19T06:33:16;19.70;99.90
24444;DHT22;13346;50.984;5.822;2023-06-19T06:35:43;19.60;99.90
24444;DHT22;13346;50.984;5.822;2023-06-19T06:38:10;19.60;99.90
24444;DHT22;13346;50.984;5.822;2023-06-19T06:40:38;19.60;99.90
24444;DHT22;13346;50.984;5.822;2023-06-19T06:43:07;19.90;99.90
24444;DHT22;13346;50.984;5.822;2023-06-19T06:45:34;20.00;99.90
24444;DHT22;13346;50.984;5.822;2023-06-19T06:48:05;19.90;99.90
24444;DHT22;13346;50.984;5.822;2023-06-19T06:50:33;20.10;99.90
24444;DHT22;13346;50.984;5.822;2023-06-19T06:53:01;20.80;99.90
24444;DHT22;13346;50.984;5.822;2023-06-19T06:55:28;20.60;99.90
24444;DHT22;13346;50.984;5.822;2023-06-19T06:57:55;21.30;99.90
24444;DHT22;13346;50.984;5.822;2023-06-19T07:00:23;20.50;99.90
24444;DHT22;13346;50.984;5.822;2023-06-19T07:02:50;21.10;99.90
24444;DHT22;13346;50.984;5.822;2023-06-19T07:05:19;21.50;99.90
24444;DHT22;13346;50.984;5.822;2023-06-19T07:07:46;23.60;99.90
24444;DHT22;13346;50.984;5.822;2023-06-19T07:10:13;22.50;99.90
24444;DHT22;13346;50.984;5.822;2023-06-19T07:12:47;22.20;99.90
24444;DHT22;13346;50.984;5.822;2023-06-19T07:15:15;22.80;99.90
24444;DHT22;13346;50.984;5.822;2023-06-19T07:17:43;22.40;99.90
24444;DHT22;13346;50.984;5.822;2023-06-19T07:20:11;23.00;99.90
24444;DHT22;13346;50.984;5.822;2023-06-19T07:22:40;23.20;99.90
24444;DHT22;13346;50.984;5.822;2023-06-19T07:25:09;23.50;99.90
24444;DHT22;13346;50.984;5.822;2023-06-19T07:27:36;23.00;99.90
24444;DHT22;13346;50.984;5.822;2023-06-19T07:30:05;23.10;99.90
24444;DHT22;13346;50.984;5.822;2023-06-19T07:32:32;23.90;99.90
24444;DHT22;13346;50.984;5.822;2023-06-19T07:34:59;23.20;99.90
24444;DHT22;13346;50.984;5.822;2023-06-19T07:37:26;24.20;99.90
24444;DHT22;13346;50.984;5.822;2023-06-19T07:39:55;23.50;99.90
24444;DHT22;13346;50.984;5.822;2023-06-19T07:42:23;23.10;99.90
24444;DHT22;13346;50.984;5.822;2023-06-19T07:44:50;22.90;99.90
24444;DHT22;13346;50.984;5.822;2023-06-19T07:47:17;22.60;99.90
24444;DHT22;13346;50.984;5.822;2023-06-19T07:49:46;21.80;99.90
24444;DHT22;13346;50.984;5.822;2023-06-19T07:52:13;22.30;99.90
24444;DHT22;13346;50.984;5.822;2023-06-19T07:54:49;22.80;99.90
24444;DHT22;13346;50.984;5.822;2023-06-19T07:57:18;22.70;99.90
24444;DHT22;13346;50.984;5.822;2023-06-19T07:59:46;22.00;99.90
24444;DHT22;13346;50.984;5.822;2023-06-19T08:02:13;22.00;99.90
24444;DHT22;13346;50.984;5.822;2023-06-19T08:04:40;21.70;99.90
24444;DHT22;13346;50.984;5.822;2023-06-19T08:07:07;21.50;99.90
24444;DHT22;13346;50.984;5.822;2023-06-19T08:09:34;21.90;99.90
24444;DHT22;13346;50.984;5.822;2023-06-19T08:12:02;21.90;99.90
24444;DHT22;13346;50.984;5.822;2023-06-19T08:14:31;22.40;99.90
24444;DHT22;13346;50.984;5.822;2023-06-19T08:16:58;22.70;99.90
24444;DHT22;13346;50.984;5.822;2023-06-19T08:19:25;22.50;99.90
24444;DHT22;13346;50.984;5.822;2023-06-19T08:21:52;22.70;99.90
24444;DHT22;13346;50.984;5.822;2023-06-19T08:24:19;22.90;99.90
24444;DHT22;13346;50.984;5.822;2023-06-19T08:26:46;23.00;99.90
24444;DHT22;13346;50.984;5.822;2023-06-19T08:29:17;22.90;99.90
24444;DHT22;13346;50.984;5.822;2023-06-19T08:31:45;22.00;99.90
24444;DHT22;13346;50.984;5.822;2023-06-19T08:34:12;21.90;99.90
24444;DHT22;13346;50.984;5.822;2023-06-19T08:36:40;22.60;99.90
24444;DHT22;13346;50.984;5.822;2023-06-19T08:39:07;23.90;99.90
24444;DHT22;13346;50.984;5.822;2023-06-19T08:41:35;23.70;99.90
24444;DHT22;13346;50.984;5.822;2023-06-19T08:44:03;23.70;99.90
24444;DHT22;13346;50.984;5.822;2023-06-19T08:46:31;22.90;99.90
24444;DHT22;13346;50.984;5.822;2023-06-19T08:48:59;22.40;99.90
24444;DHT22;13346;50.984;5.822;2023-06-19T08:51:27;22.40;99.90
24444;DHT22;13346;50.984;5.822;2023-06-19T08:54:01;22.40;99.90
24444;DHT22;13346;50.984;5.822;2023-06-19T08:56:29;22.70;99.90
24444;DHT22;13346;50.984;5.822;2023-06-19T08:59:08;22.90;99.90
24444;DHT22;13346;50.984;5.822;2023-06-19T09:01:36;22.50;99.90
24444;DHT22;13346;50.984;5.822;2023-06-19T09:04:14;22.50;99.90
24444;DHT22;13346;50.984;5.822;2023-06-19T09:06:48;22.80;99.90
24444;DHT22;13346;50.984;5.822;2023-06-19T09:09:15;22.80;99.90
24444;DHT22;13346;50.984;5.822;2023-06-19T09:11:43;23.10;99.90
24444;DHT22;13346;50.984;5.822;2023-06-19T09:14:10;23.20;99.90
24444;DHT22;13346;50.984;5.822;2023-06-19T09:16:39;23.30;99.90
24444;DHT22;13346;50.984;5.822;2023-06-19T09:19:06;22.90;99.90
24444;DHT22;13346;50.984;5.822;2023-06-19T09:21:37;23.60;99.90
24444;DHT22;13346;50.984;5.822;2023-06-19T09:24:06;23.50;99.90
24444;DHT22;13346;50.984;5.822;2023-06-19T09:26:33;23.70;99.90
24444;DHT22;13346;50.984;5.822;2023-06-19T09:29:10;23.30;99.90
24444;DHT22;13346;50.984;5.822;2023-06-19T09:31:38;23.40;99.90
24444;DHT22;13346;50.984;5.822;2023-06-19T09:34:07;23.50;99.90
24444;DHT22;13346;50.984;5.822;2023-06-19T09:36:36;24.20;99.90
24444;DHT22;13346;50.984;5.822;2023-06-19T09:39:04;24.40;99.90
24444;DHT22;13346;50.984;5.822;2023-06-19T09:41:32;24.40;99.90
24444;DHT22;13346;50.984;5.822;2023-06-19T09:43:59;24.40;99.90
24444;DHT22;13346;50.984;5.822;2023-06-19T09:46:30;25.00;99.90
24444;DHT22;13346;50.984;5.822;2023-06-19T09:49:01;24.90;99.90
24444;DHT22;13346;50.984;5.822;2023-06-19T09:51:32;25.00;99.90
24444;DHT22;13346;50.984;5.822;2023-06-19T09:54:02;24.90;99.90
24444;DHT22;13346;50.984;5.822;2023-06-19T09:56:30;25.00;99.90
24444;DHT22;13346;50.984;5.822;2023-06-19T09:58:59;24.70;99.90
24444;DHT22;13346;50.984;5.822;2023-06-19T10:01:29;25.70;99.90
24444;DHT22;13346;50.984;5.822;2023-06-19T10:04:04;25.10;99.90
24444;DHT22;13346;50.984;5.822;2023-06-19T10:06:32;25.50;99.90
24444;DHT22;13346;50.984;5.822;2023-06-19T10:09:08;25.10;99.30
24444;DHT22;13346;50.984;5.822;2023-06-19T10:11:47;26.20;99.60
24444;DHT22;13346;50.984;5.822;2023-06-19T10:14:14;25.60;99.90
24444;DHT22;13346;50.984;5.822;2023-06-19T10:16:44;24.60;99.90
24444;DHT22;13346;50.984;5.822;2023-06-19T10:19:15;24.50;99.90
24444;DHT22;13346;50.984;5.822;2023-06-19T10:21:47;24.70;99.90
24444;DHT22;13346;50.984;5.822;2023-06-19T10:24:17;24.80;99.90
24444;DHT22;13346;50.984;5.822;2023-06-19T10:26:56;25.80;99.90
24444;DHT22;13346;50.984;5.822;2023-06-19T10:29:24;26.80;96.00
24444;DHT22;13346;50.984;5.822;2023-06-19T10:31:51;26.90;95.10
24444;DHT22;13346;50.984;5.822;2023-06-19T10:34:18;26.00;95.20
24444;DHT22;13346;50.984;5.822;2023-06-19T10:36:46;25.60;99.50
24444;DHT22;13346;50.984;5.822;2023-06-19T10:39:13;25.10;99.90
24444;DHT22;13346;50.984;5.822;2023-06-19T10:41:43;25.80;98.20
24444;DHT22;13346;50.984;5.822;2023-06-19T10:44:10;25.60;91.50
24444;DHT22;13346;50.984;5.822;2023-06-19T10:46:40;25.20;97.40
24444;DHT22;13346;50.984;5.822;2023-06-19T10:49:08;24.80;99.50
24444;DHT22;13346;50.984;5.822;2023-06-19T10:51:37;24.90;96.70
24444;DHT22;13346;50.984;5.822;2023-06-19T10:54:06;25.20;97.20
24444;DHT22;13346;50.984;5.822;2023-06-19T10:56:34;24.80;97.50
24444;DHT22;13346;50.984;5.822;2023-06-19T10:59:04;25.30;96.70
24444;DHT22;13346;50.984;5.822;2023-06-19T11:01:33;25.70;95.60
24444;DHT22;13346;50.984;5.822;2023-06-19T11:04:05;25.70;93.70
24444;DHT22;13346;50.984;5.822;2023-06-19T11:06:33;26.20;91.10
24444;DHT22;13346;50.984;5.822;2023-06-19T11:09:00;25.20;92.10
24444;DHT22;13346;50.984;5.822;2023-06-19T11:11:37;25.20;91.60
24444;DHT22;13346;50.984;5.822;2023-06-19T11:14:06;25.50;91.90
24444;DHT22;13346;50.984;5.822;2023-06-19T11:16:34;26.00;91.70
24444;DHT22;13346;50.984;5.822;2023-06-19T11:19:01;26.90;79.30
24444;DHT22;13346;50.984;5.822;2023-06-19T11:21:30;26.00;85.10
24444;DHT22;13346;50.984;5.822;2023-06-19T11:23:59;25.60;90.00
24444;DHT22;13346;50.984;5.822;2023-06-19T11:26:26;25.50;91.20
24444;DHT22;13346;50.984;5.822;2023-06-19T11:28:53;25.30;92.90
24444;DHT22;13346;50.984;5.822;2023-06-19T11:31:26;25.50;91.80
24444;DHT22;13346;50.984;5.822;2023-06-19T11:33:58;25.20;91.30
24444;DHT22;13346;50.984;5.822;2023-06-19T11:36:27;25.80;88.50
24444;DHT22;13346;50.984;5.822;2023-06-19T11:38:55;26.10;91.30
24444;DHT22;13346;50.984;5.822;2023-06-19T11:41:27;25.50;94.00
24444;DHT22;13346;50.984;5.822;2023-06-19T11:44:02;26.20;77.10
24444;DHT22;13346;50.984;5.822;2023-06-19T11:46:32;26.40;86.20
24444;DHT22;13346;50.984;5.822;2023-06-19T11:49:10;26.00;85.10
24444;DHT22;13346;50.984;5.822;2023-06-19T11:51:37;26.50;82.90
24444;DHT22;13346;50.984;5.822;2023-06-19T11:54:07;26.40;69.80
24444;DHT22;13346;50.984;5.822;2023-06-19T11:56:35;26.20;77.50
24444;DHT22;13346;50.984;5.822;2023-06-19T11:59:02;26.10;71.40
24444;DHT22;13346;50.984;5.822;2023-06-19T12:01:31;27.40;55.70
24444;DHT22;13346;50.984;5.822;2023-06-19T12:03:59;26.50;64.10
24444;DHT22;13346;50.984;5.822;2023-06-19T12:06:26;27.00;62.40
24444;DHT22;13346;50.984;5.822;2023-06-19T12:08:54;28.30;52.40
24444;DHT22;13346;50.984;5.822;2023-06-19T12:11:22;27.90;49.60
24444;DHT22;13346;50.984;5.822;2023-06-19T12:13:50;28.70;46.20
24444;DHT22;13346;50.984;5.822;2023-06-19T12:16:19;28.20;46.30
24444;DHT22;13346;50.984;5.822;2023-06-19T12:18:47;27.50;45.80
24444;DHT22;13346;50.984;5.822;2023-06-19T12:21:15;27.70;44.50
24444;DHT22;13346;50.984;5.822;2023-06-19T12:23:42;27.40;46.20
24444;DHT22;13346;50.984;5.822;2023-06-19T12:26:09;27.10;53.10
24444;DHT22;13346;50.984;5.822;2023-06-19T12:28:36;26.60;53.60
24444;DHT22;13346;50.984;5.822;2023-06-19T12:31:03;26.20;54.50
24444;DHT22;13346;50.984;5.822;2023-06-19T12:33:31;26.40;54.70
24444;DHT22;13346;50.984;5.822;2023-06-19T12:36:01;26.90;48.60
24444;DHT22;13346;50.984;5.822;2023-06-19T12:38:28;27.00;41.90
24444;DHT22;13346;50.984;5.822;2023-06-19T12:40:55;26.90;43.40
24444;DHT22;13346;50.984;5.822;2023-06-19T12:43:22;27.80;42.70
24444;DHT22;13346;50.984;5.822;2023-06-19T12:45:50;28.70;39.30
24444;DHT22;13346;50.984;5.822;2023-06-19T12:48:17;27.30;44.60
24444;DHT22;13346;50.984;5.822;2023-06-19T12:50:44;26.60;45.90
24444;DHT22;13346;50.984;5.822;2023-06-19T12:53:13;27.50;40.40
24444;DHT22;13346;50.984;5.822;2023-06-19T12:55:40;28.30;35.80
24444;DHT22;13346;50.984;5.822;2023-06-19T12:58:08;29.40;34.50
24444;DHT22;13346;50.984;5.822;2023-06-19T13:00:36;28.30;32.60
24444;DHT22;13346;50.984;5.822;2023-06-19T13:03:03;28.10;35.90
24444;DHT22;13346;50.984;5.822;2023-06-19T13:05:30;27.20;40.60
24444;DHT22;13346;50.984;5.822;2023-06-19T13:08:01;27.30;37.00
24444;DHT22;13346;50.984;5.822;2023-06-19T13:10:29;28.10;37.20
24444;DHT22;13346;50.984;5.822;2023-06-19T13:12:56;28.30;32.20
24444;DHT22;13346;50.984;5.822;2023-06-19T13:15:24;27.50;32.40
24444;DHT22;13346;50.984;5.822;2023-06-19T13:17:53;27.70;23.20
24444;DHT22;13346;50.984;5.822;2023-06-19T13:20:20;28.50;27.30
24444;DHT22;13346;50.984;5.822;2023-06-19T13:22:47;27.60;33.20
24444;DHT22;13346;50.984;5.822;2023-06-19T13:25:15;28.00;29.80
24444;DHT22;13346;50.984;5.822;2023-06-19T13:27:44;27.70;29.60
24444;DHT22;13346;50.984;5.822;2023-06-19T13:30:12;27.80;30.40
24444;DHT22;13346;50.984;5.822;2023-06-19T13:32:39;28.50;28.00
24444;DHT22;13346;50.984;5.822;2023-06-19T13:35:07;28.00;25.20
24444;DHT22;13346;50.984;5.822;2023-06-19T13:37:36;27.40;35.70
24444;DHT22;13346;50.984;5.822;2023-06-19T13:40:05;28.50;30.00
24444;DHT22;13346;50.984;5.822;2023-06-19T13:42:33;29.60;22.90
24444;DHT22;13346;50.984;5.822;2023-06-19T13:45:02;29.00;28.00
24444;DHT22;13346;50.984;5.822;2023-06-19T13:47:30;28.30;27.50
24444;DHT22;13346;50.984;5.822;2023-06-19T13:49:57;28.50;29.50
24444;DHT22;13346;50.984;5.822;2023-06-19T13:52:25;28.40;23.00
24444;DHT22;13346;50.984;5.822;2023-06-19T13:54:52;29.60;19.50
24444;DHT22;13346;50.984;5.822;2023-06-19T13:57:20;30.50;18.60
24444;DHT22;13346;50.984;5.822;2023-06-19T13:59:48;30.90;11.40
24444;DHT22;13346;50.984;5.822;2023-06-19T14:02:17;29.90;13.30
24444;DHT22;13346;50.984;5.822;2023-06-19T14:04:44;30.10;10.00
24444;DHT22;13346;50.984;5.822;2023-06-19T14:07:11;32.00;7.60
24444;DHT22;13346;50.984;5.822;2023-06-19T14:09:39;32.40;2.90
24444;DHT22;13346;50.984;5.822;2023-06-19T14:12:08;29.20;13.70
24444;DHT22;13346;50.984;5.822;2023-06-19T14:14:35;30.80;11.90
24444;DHT22;13346;50.984;5.822;2023-06-19T14:17:02;30.10;8.30
24444;DHT22;13346;50.984;5.822;2023-06-19T14:19:31;30.60;6.50
24444;DHT22;13346;50.984;5.822;2023-06-19T14:21:59;31.40;4.60
24444;DHT22;13346;50.984;5.822;2023-06-19T14:24:27;29.30;6.00
24444;DHT22;13346;50.984;5.822;2023-06-19T14:26:54;30.80;3.00
24444;DHT22;13346;50.984;5.822;2023-06-19T14:29:22;31.30;1.30
24444;DHT22;13346;50.984;5.822;2023-06-19T14:31:51;30.00;5.40
24444;DHT22;13346;50.984;5.822;2023-06-19T14:34:19;29.70;8.10
24444;DHT22;13346;50.984;5.822;2023-06-19T14:36:47;30.60;2.70
24444;DHT22;13346;50.984;5.822;2023-06-19T14:39:14;31.90;1.00
24444;DHT22;13346;50.984;5.822;2023-06-19T14:41:42;29.40;3.00
24444;DHT22;13346;50.984;5.822;2023-06-19T14:44:09;32.10;1.00
24444;DHT22;13346;50.984;5.822;2023-06-19T14:46:36;30.80;1.00
24444;DHT22;13346;50.984;5.822;2023-06-19T14:49:05;30.90;4.20
24444;DHT22;13346;50.984;5.822;2023-06-19T14:51:33;31.30;1.00
24444;DHT22;13346;50.984;5.822;2023-06-19T14:54:01;31.70;2.60
24444;DHT22;13346;50.984;5.822;2023-06-19T14:56:29;29.60;3.10
24444;DHT22;13346;50.984;5.822;2023-06-19T14:58:56;29.60;5.30
24444;DHT22;13346;50.984;5.822;2023-06-19T15:01:24;31.00;1.20
24444;DHT22;13346;50.984;5.822;2023-06-19T15:03:52;32.30;1.00
24444;DHT22;13346;50.984;5.822;2023-06-19T15:06:19;31.90;1.00
24444;DHT22;13346;50.984;5.822;2023-06-19T15:08:46;31.20;1.00
24444;DHT22;13346;50.984;5.822;2023-06-19T15:11:15;31.50;1.00
24444;DHT22;13346;50.984;5.822;2023-06-19T15:13:42;32.40;1.00
24444;DHT22;13346;50.984;5.822;2023-06-19T15:16:10;32.70;1.00
24444;DHT22;13346;50.984;5.822;2023-06-19T15:18:38;31.00;1.00
24444;DHT22;13346;50.984;5.822;2023-06-19T15:21:05;31.10;1.00
24444;DHT22;13346;50.984;5.822;2023-06-19T15:23:33;31.50;1.00
24444;DHT22;13346;50.984;5.822;2023-06-19T15:26:00;32.80;1.00
24444;DHT22;13346;50.984;5.822;2023-06-19T15:28:29;32.30;1.00
24444;DHT22;13346;50.984;5.822;2023-06-19T15:30:56;31.40;1.00
24444;DHT22;13346;50.984;5.822;2023-06-19T15:33:23;31.60;1.00
24444;DHT22;13346;50.984;5.822;2023-06-19T15:35:51;31.80;1.00
24444;DHT22;13346;50.984;5.822;2023-06-19T15:38:18;30.40;1.00